createdAt,value
2018-08-23T00:01:47.326Z,22.93
2018-08-23T00:05:52.152Z,24.20
2018-08-23T00:09:55.928Z,22.20
2018-08-23T00:13:59.637Z,22.60
2018-08-23T00:18:06.275Z,24.10
2018-08-23T00:22:14.152Z,23.43
2018-08-23T00:26:17.909Z,28.20
2018-08-23T00:30:24.856Z,30.77
2018-08-23T00:34:29.948Z,28.73
2018-08-23T00:38:33.616Z,27.30
2018-08-23T00:42:37.352Z,30.33
2018-08-23T00:46:41.089Z,30.47
2018-08-23T00:50:48.283Z,26.20
2018-08-23T00:54:52.116Z,25.17
2018-08-23T00:59:01.966Z,26.17
2018-08-23T01:03:05.708Z,29.00
2018-08-23T01:07:09.473Z,27.07
2018-08-23T01:11:13.205Z,29.00
2018-08-23T01:15:16.857Z,28.13
2018-08-23T01:19:25.651Z,28.00
2018-08-23T01:23:29.452Z,27.47
2018-08-23T01:27:38.220Z,27.03
2018-08-23T01:31:41.928Z,28.83
2018-08-23T01:35:46.963Z,29.97
2018-08-23T01:39:50.601Z,28.67
2018-08-23T01:43:54.351Z,29.70
2018-08-23T01:47:58.135Z,29.07
2018-08-23T01:52:01.843Z,34.63
2018-08-23T01:56:06.048Z,31.00
2018-08-23T02:00:10.449Z,29.27
2018-08-23T02:04:14.216Z,31.13
2018-08-23T02:08:17.916Z,31.27
2018-08-23T02:12:21.853Z,31.67
2018-08-23T02:16:25.569Z,31.03
2018-08-23T02:20:29.326Z,32.43
2018-08-23T02:24:35.921Z,27.83
2018-08-23T02:28:39.705Z,34.33
2018-08-23T02:32:43.386Z,31.17
2018-08-23T02:36:47.085Z,32.07
2018-08-23T02:40:50.812Z,36.57
2018-08-23T02:44:56.175Z,33.57
2018-08-23T02:48:59.866Z,34.13
2018-08-23T02:53:36.057Z,33.63
2018-08-23T02:57:48.622Z,31.93
2018-08-23T03:01:52.451Z,31.50
2018-08-23T03:05:56.116Z,39.03
2018-08-23T03:10:00.148Z,36.53
2018-08-23T03:14:03.952Z,42.03
2018-08-23T03:18:07.662Z,42.43
2018-08-23T03:22:11.417Z,41.67
2018-08-23T03:26:15.230Z,40.10
2018-08-23T03:30:19.675Z,37.77
2018-08-23T03:34:23.388Z,38.17
2018-08-23T03:38:27.157Z,37.67
2018-08-23T03:42:30.830Z,39.40
2018-08-23T03:46:46.368Z,43.43
2018-08-23T03:50:52.459Z,39.67
2018-08-23T03:55:01.429Z,39.60
2018-08-23T03:59:05.251Z,37.77
2018-08-23T04:03:12.359Z,39.10
2018-08-23T04:07:16.776Z,33.00
2018-08-23T04:11:20.861Z,32.13
2018-08-23T04:15:27.570Z,40.27
2018-08-23T04:19:32.560Z,34.83
2018-08-23T04:23:36.248Z,32.80
2018-08-23T04:27:39.978Z,33.47
2018-08-23T04:31:43.756Z,34.37
2018-08-23T04:35:47.468Z,42.90
2018-08-23T04:39:56.555Z,36.13
2018-08-23T04:44:18.512Z,30.27
2018-08-23T04:48:22.189Z,36.43
2018-08-23T04:52:25.889Z,41.77
2018-08-23T04:56:29.837Z,36.37
2018-08-23T05:00:33.607Z,41.30
2018-08-23T05:04:37.344Z,36.07
2018-08-23T05:08:41.002Z,32.03
2018-08-23T05:12:44.693Z,40.10
2018-08-23T05:16:48.392Z,41.07
2018-08-23T05:20:52.088Z,33.20
2018-08-23T05:25:03.904Z,44.73
2018-08-23T05:29:08.713Z,36.67
2018-08-23T05:33:14.354Z,38.33
2018-08-23T05:37:18.176Z,39.37
2018-08-23T05:41:21.900Z,36.50
2018-08-23T05:45:35.329Z,38.20
2018-08-23T05:49:39.137Z,50.93
2018-08-23T05:53:45.186Z,48.77
2018-08-23T05:57:49.098Z,50.03
2018-08-23T06:01:52.857Z,49.07
2018-08-23T06:05:56.875Z,51.43
2018-08-23T06:10:00.578Z,52.67
2018-08-23T06:14:04.292Z,59.13
2018-08-23T06:18:08.121Z,59.97
2018-08-23T06:22:11.925Z,57.97
2018-08-23T06:26:15.644Z,61.20
2018-08-23T06:30:19.441Z,54.93
2018-08-23T06:34:24.192Z,62.57
2018-08-23T06:38:27.926Z,65.67
2018-08-23T06:42:45.809Z,64.80
2018-08-23T06:46:49.655Z,64.53
2018-08-23T06:50:57.495Z,59.97
2018-08-23T06:55:01.509Z,64.53
2018-08-23T06:59:05.323Z,64.23
2018-08-23T07:03:09.068Z,57.00
2018-08-23T07:07:17.813Z,59.83
2018-08-23T07:11:22.085Z,59.63
2018-08-23T07:15:25.913Z,55.20
2018-08-23T07:19:31.053Z,57.20
2018-08-23T07:23:38.784Z,52.03
2018-08-23T07:27:42.661Z,56.00
2018-08-23T07:32:01.917Z,49.83
2018-08-23T07:36:18.676Z,46.67
2018-08-23T07:40:24.406Z,44.80
2018-08-23T07:44:28.096Z,44.00
2018-08-23T07:48:31.849Z,48.97
2018-08-23T07:52:36.597Z,42.10
2018-08-23T07:56:40.308Z,52.87
2018-08-23T08:00:44.503Z,45.17
2018-08-23T08:04:48.192Z,37.10
2018-08-23T08:08:52.788Z,50.50
2018-08-23T08:12:56.457Z,38.73
2018-08-23T08:17:09.253Z,40.70
2018-08-23T08:21:17.010Z,35.30
2018-08-23T08:25:20.805Z,33.07
2018-08-23T08:29:29.838Z,37.20
2018-08-23T08:33:34.132Z,33.87
2018-08-23T08:37:37.896Z,34.07
2018-08-23T08:41:41.549Z,35.47
2018-08-23T08:45:45.224Z,34.17
2018-08-23T08:49:48.900Z,33.07
2018-08-23T08:53:53.507Z,34.00
2018-08-23T08:57:57.194Z,40.53
2018-08-23T09:02:00.990Z,43.30
2018-08-23T09:06:06.573Z,41.50
2018-08-23T09:10:10.283Z,45.33
2018-08-23T09:14:14.098Z,45.37
2018-08-23T09:18:23.214Z,42.70
2018-08-23T09:22:26.896Z,46.70
2018-08-23T09:26:35.949Z,46.23
2018-08-23T09:30:39.803Z,44.77
2018-08-23T09:34:43.623Z,46.67
2018-08-23T09:38:47.336Z,49.03
2018-08-23T09:42:51.050Z,51.03
2018-08-23T09:46:59.575Z,49.87
2018-08-23T09:51:16.646Z,47.50
2018-08-23T09:55:21.412Z,46.73
2018-08-23T09:59:25.589Z,52.03
2018-08-23T10:03:35.189Z,58.40
2018-08-23T10:07:43.980Z,53.73
2018-08-23T10:11:53.016Z,56.27
2018-08-23T10:16:02.086Z,48.53
2018-08-23T10:20:11.162Z,49.03
2018-08-23T10:24:20.112Z,54.80
2018-08-23T10:28:55.658Z,47.53
2018-08-23T10:32:59.329Z,48.70
2018-08-23T10:37:03.028Z,51.13
2018-08-23T10:41:06.720Z,44.03
2018-08-23T10:45:10.425Z,40.77
2018-08-23T10:49:14.067Z,47.43
2018-08-23T10:53:18.264Z,44.47
2018-08-23T10:57:21.943Z,45.50
2018-08-23T11:01:25.625Z,44.10
2018-08-23T11:05:29.324Z,41.77
2018-08-23T11:09:38.326Z,35.80
2018-08-23T11:13:46.187Z,36.20
2018-08-23T11:17:55.243Z,39.38
2018-08-23T11:21:58.952Z,36.10
2018-08-23T11:26:02.804Z,28.93
2018-08-23T11:30:06.532Z,41.43
2018-08-23T11:34:10.237Z,33.83
2018-08-23T11:38:13.978Z,35.77
2018-08-23T11:42:17.701Z,36.87
2018-08-23T11:46:22.433Z,37.07
2018-08-23T11:50:26.133Z,30.17
2018-08-23T11:54:29.848Z,29.07
2018-08-23T11:58:33.650Z,26.43
2018-08-23T12:02:37.457Z,18.90
2018-08-23T12:06:41.195Z,24.40
2018-08-23T12:10:44.908Z,19.60
2018-08-23T12:14:52.871Z,22.47
2018-08-23T12:18:56.646Z,20.93
2018-08-23T12:23:00.390Z,20.57
2018-08-23T12:27:04.154Z,14.93
2018-08-23T12:31:07.985Z,12.20
2018-08-23T12:35:11.718Z,11.43
2018-08-23T12:39:20.799Z,15.17
2018-08-23T12:43:56.484Z,12.90
2018-08-23T12:48:00.310Z,13.60
2018-08-23T12:52:04.038Z,8.00
2018-08-23T12:56:07.814Z,9.83
2018-08-23T13:00:11.537Z,9.63
2018-08-23T13:04:15.384Z,8.77
2018-08-23T13:08:19.138Z,7.13
2018-08-23T13:12:22.877Z,7.90
2018-08-23T13:16:26.585Z,6.53
2018-08-23T13:20:30.327Z,6.23
2018-08-23T13:24:38.249Z,10.97
2018-08-23T13:28:42.019Z,7.43
2018-08-23T13:32:45.800Z,7.30
2018-08-23T13:36:49.590Z,7.40
2018-08-23T13:40:53.242Z,8.10
2018-08-23T13:44:56.984Z,5.93
2018-08-23T13:49:00.797Z,5.53
2018-08-23T13:53:04.540Z,7.67
2018-08-23T13:57:08.313Z,5.70
2018-08-23T14:01:12.069Z,6.33
2018-08-23T14:05:15.912Z,6.80
2018-08-23T14:09:19.642Z,6.10
2018-08-23T14:13:23.378Z,7.53
2018-08-23T14:17:27.617Z,7.00
2018-08-23T14:21:31.327Z,8.03
2018-08-23T14:25:35.144Z,11.10
2018-08-23T14:29:38.954Z,11.97
2018-08-23T14:33:42.648Z,8.10
2018-08-23T14:37:46.397Z,10.33
2018-08-23T14:41:50.214Z,11.50
2018-08-23T14:45:58.177Z,9.77
2018-08-23T14:50:01.912Z,10.10
2018-08-23T14:54:11.532Z,9.43
2018-08-23T14:58:15.263Z,11.10
2018-08-23T15:02:18.997Z,11.20
2018-08-23T15:06:29.080Z,10.83
2018-08-23T15:10:32.832Z,11.40
2018-08-23T15:14:36.667Z,12.40
2018-08-23T15:18:40.341Z,14.17
2018-08-23T15:22:44.076Z,13.63
2018-08-23T15:26:48.442Z,11.20
2018-08-23T15:30:52.012Z,10.33
2018-08-23T15:34:55.887Z,11.10
2018-08-23T15:38:59.601Z,11.27
2018-08-23T15:43:03.321Z,8.83
2018-08-23T15:47:07.133Z,9.80
2018-08-23T15:51:10.873Z,9.10
2018-08-23T15:55:14.726Z,13.60
2018-08-23T15:59:18.466Z,9.90
2018-08-23T16:03:22.162Z,9.53
2018-08-23T16:07:25.927Z,10.90
2018-08-23T16:11:29.720Z,7.93
2018-08-23T16:15:40.152Z,6.93
2018-08-23T16:19:49.038Z,7.23
2018-08-23T16:23:52.727Z,11.00
2018-08-23T16:27:56.478Z,5.90
2018-08-23T16:32:00.282Z,6.77
2018-08-23T16:36:04.016Z,10.77
2018-08-23T16:40:07.745Z,6.90
2018-08-23T16:44:11.651Z,5.30
2018-08-23T16:48:15.350Z,5.23
2018-08-23T16:52:19.072Z,5.30
2018-08-23T16:56:22.820Z,5.80
2018-08-23T17:00:26.625Z,7.57
2018-08-23T17:04:35.576Z,5.43
2018-08-23T17:08:39.248Z,4.33
2018-08-23T17:12:43.004Z,5.67
2018-08-23T17:16:51.980Z,5.87
2018-08-23T17:20:55.681Z,4.93
2018-08-23T17:24:59.380Z,6.67
2018-08-23T17:29:03.124Z,5.17
2018-08-23T17:33:07.046Z,8.67
2018-08-23T17:37:10.808Z,9.17
2018-08-23T17:41:14.533Z,5.00
2018-08-23T17:45:18.263Z,7.63
2018-08-23T17:49:22.030Z,10.53
2018-08-23T17:53:25.715Z,6.73
2018-08-23T17:57:29.420Z,7.43
2018-08-23T18:01:34.041Z,9.10
2018-08-23T18:05:37.769Z,7.67
2018-08-23T18:09:41.454Z,11.37
2018-08-23T18:13:45.177Z,14.37
2018-08-23T18:17:48.978Z,19.33
2018-08-23T18:21:52.752Z,17.43
2018-08-23T18:25:56.516Z,16.20
2018-08-23T18:30:00.197Z,14.77
2018-08-23T18:34:04.380Z,16.13
2018-08-23T18:38:08.172Z,17.53
2018-08-23T18:42:11.889Z,15.17
2018-08-23T18:46:15.581Z,17.63
2018-08-23T18:50:19.311Z,16.60
2018-08-23T18:54:23.095Z,19.20
2018-08-23T18:58:26.889Z,16.83
2018-08-23T19:02:30.616Z,22.50
2018-08-23T19:06:34.351Z,16.93
2018-08-23T19:11:42.021Z,18.67
2018-08-23T19:15:51.157Z,19.17
2018-08-23T19:19:55.057Z,17.23
2018-08-23T19:23:58.806Z,17.67
2018-08-23T19:28:02.553Z,17.60
2018-08-23T19:32:06.295Z,18.77
2018-08-23T19:36:10.218Z,17.57
2018-08-23T19:40:13.945Z,16.17
2018-08-23T19:44:17.657Z,13.00
2018-08-23T19:48:21.393Z,22.40
2018-08-23T19:52:25.117Z,15.87
2018-08-23T19:56:28.822Z,17.03
2018-08-23T20:00:32.561Z,13.40
2018-08-23T20:04:36.394Z,16.10
2018-08-23T20:08:40.152Z,16.53
2018-08-23T20:12:43.856Z,18.20
2018-08-23T20:16:47.520Z,18.93
2018-08-23T20:20:51.202Z,18.83
2018-08-23T20:24:54.943Z,20.13
2018-08-23T20:28:58.676Z,16.93
2018-08-23T20:33:02.376Z,14.97
2018-08-23T20:37:06.151Z,14.03
2018-08-23T20:41:09.905Z,15.43
2018-08-23T20:45:13.844Z,15.00
2018-08-23T20:49:17.555Z,17.00
2018-08-23T20:53:21.248Z,15.90
2018-08-23T20:57:24.909Z,18.93
2018-08-23T21:01:29.124Z,15.93
2018-08-23T21:05:32.829Z,17.00
2018-08-23T21:09:36.566Z,14.40
2018-08-23T21:13:40.264Z,16.20
2018-08-23T21:17:43.953Z,15.67
2018-08-23T21:21:47.634Z,16.40
2018-08-23T21:25:51.365Z,14.13
2018-08-23T21:29:55.107Z,17.83
2018-08-23T21:33:58.795Z,14.23
2018-08-23T21:38:02.457Z,14.33
2018-08-23T21:42:06.234Z,15.50
2018-08-23T21:46:09.929Z,13.90
2018-08-23T21:50:13.662Z,15.50
2018-08-23T21:54:17.351Z,12.60
2018-08-23T21:58:21.030Z,18.13
2018-08-23T22:02:24.732Z,12.07
2018-08-23T22:06:28.509Z,13.27
2018-08-23T22:10:32.212Z,17.87
2018-08-23T22:14:35.907Z,14.53
2018-08-23T22:18:39.664Z,18.43
2018-08-23T22:22:43.343Z,13.80
2018-08-23T22:26:47.223Z,13.53
2018-08-23T22:30:50.800Z,15.47
2018-08-23T22:34:54.615Z,15.70
2018-08-23T22:38:58.268Z,15.93
2018-08-23T22:43:01.962Z,19.13
2018-08-23T22:47:05.818Z,14.87
2018-08-23T22:51:09.532Z,16.30
2018-08-23T22:55:13.287Z,15.27
2018-08-23T22:59:16.949Z,13.97
2018-08-23T23:03:25.832Z,15.90
2018-08-23T23:07:29.530Z,12.50
2018-08-23T23:11:33.303Z,13.40
2018-08-23T23:15:36.997Z,12.13
2018-08-23T23:19:40.687Z,13.30
2018-08-23T23:23:44.394Z,14.47
2018-08-23T23:27:48.141Z,12.13
2018-08-23T23:31:51.837Z,13.27
2018-08-23T23:35:55.572Z,13.33
2018-08-23T23:39:59.234Z,13.57
2018-08-23T23:44:02.924Z,15.73
2018-08-23T23:48:06.644Z,12.53
2018-08-23T23:52:10.433Z,12.67
2018-08-23T23:56:14.175Z,11.83
